createdAt,value
2022-11-29T00:00:45.473Z,7.23
2022-11-29T00:03:12.420Z,7.19
2022-11-29T00:05:39.290Z,7.18
2022-11-29T00:08:07.528Z,7.17
2022-11-29T00:10:36.853Z,7.16
2022-11-29T00:13:03.888Z,7.10
2022-11-29T00:15:30.606Z,7.07
2022-11-29T00:17:57.316Z,7.06
2022-11-29T00:20:24.011Z,7.08
2022-11-29T00:22:50.680Z,7.06
2022-11-29T00:25:19.059Z,7.03
2022-11-29T00:27:45.887Z,7.01
2022-11-29T00:30:13.772Z,6.97
2022-11-29T00:32:40.496Z,6.97
2022-11-29T00:35:09.868Z,7.01
2022-11-29T00:37:36.861Z,6.95
2022-11-29T00:40:03.906Z,6.95
2022-11-29T00:42:32.217Z,6.96
2022-11-29T00:44:58.891Z,6.95
2022-11-29T00:47:25.645Z,6.95
2022-11-29T00:49:52.389Z,6.96
2022-11-29T00:52:19.012Z,6.96
2022-11-29T00:54:46.086Z,6.96
2022-11-29T00:57:12.934Z,6.97
2022-11-29T00:59:40.985Z,6.98
2022-11-29T01:02:07.729Z,6.92
2022-11-29T01:04:34.726Z,6.96
2022-11-29T01:07:01.507Z,6.96
2022-11-29T01:09:28.187Z,7.00
2022-11-29T01:11:54.861Z,6.96
2022-11-29T01:14:21.723Z,7.01
2022-11-29T01:16:49.949Z,6.96
2022-11-29T01:19:16.759Z,7.01
2022-11-29T01:21:43.445Z,6.97
2022-11-29T01:24:10.336Z,7.02
2022-11-29T01:26:37.050Z,6.97
2022-11-29T01:29:03.827Z,6.95
2022-11-29T01:31:32.702Z,6.96
2022-11-29T01:34:02.812Z,6.94
2022-11-29T01:36:30.194Z,6.97
2022-11-29T01:38:58.788Z,6.94
2022-11-29T01:41:27.798Z,6.90
2022-11-29T01:43:58.098Z,6.84
2022-11-29T01:46:25.296Z,6.87
2022-11-29T01:48:56.114Z,6.83
2022-11-29T01:51:25.864Z,6.77
2022-11-29T01:53:53.541Z,6.73
2022-11-29T01:56:20.836Z,6.68
2022-11-29T01:58:47.730Z,6.67
2022-11-29T02:01:15.013Z,6.63
2022-11-29T02:03:42.006Z,6.58
2022-11-29T02:06:08.942Z,6.49
2022-11-29T02:08:39.927Z,6.42
2022-11-29T02:11:37.432Z,6.31
2022-11-29T02:14:16.131Z,6.18
2022-11-29T02:16:56.307Z,6.07
2022-11-29T02:19:41.356Z,6.04
2022-11-29T02:22:15.001Z,6.03
2022-11-29T02:25:02.555Z,6.02
2022-11-29T02:28:07.712Z,5.94
2022-11-29T02:30:55.391Z,5.86
2022-11-29T02:33:39.302Z,5.79
2022-11-29T02:36:25.086Z,5.76
2022-11-29T02:39:19.926Z,5.73
2022-11-29T02:41:58.330Z,5.72
2022-11-29T02:44:47.966Z,5.76
2022-11-29T02:47:24.886Z,5.77
2022-11-29T02:50:29.718Z,5.79
2022-11-29T02:53:04.618Z,5.71
2022-11-29T02:55:38.187Z,5.78
2022-11-29T02:58:15.670Z,5.71
2022-11-29T03:00:51.489Z,5.69
2022-11-29T03:03:24.121Z,5.71
2022-11-29T03:06:02.511Z,5.69
2022-11-29T03:08:36.299Z,5.62
2022-11-29T03:11:12.230Z,5.56
2022-11-29T03:13:50.545Z,5.56
2022-11-29T03:16:29.128Z,5.55
2022-11-29T03:19:05.586Z,5.45
2022-11-29T03:21:42.286Z,5.34
2022-11-29T03:24:16.718Z,5.28
2022-11-29T03:26:48.966Z,5.18
2022-11-29T03:29:25.372Z,5.08
2022-11-29T03:31:59.335Z,5.01
2022-11-29T03:34:38.133Z,4.87
2022-11-29T03:37:15.611Z,4.81
2022-11-29T03:39:51.139Z,4.71
2022-11-29T03:42:25.278Z,4.61
2022-11-29T03:45:00.232Z,4.52
2022-11-29T03:47:33.796Z,4.45
2022-11-29T03:50:05.663Z,4.38
2022-11-29T03:52:38.535Z,4.34
2022-11-29T03:55:20.199Z,4.23
2022-11-29T03:57:50.802Z,4.16
2022-11-29T04:00:19.166Z,4.18
2022-11-29T04:03:19.341Z,4.18
2022-11-29T04:06:29.182Z,4.14
2022-11-29T04:09:23.075Z,4.03
2022-11-29T04:12:06.881Z,3.92
2022-11-29T04:15:20.102Z,3.86
2022-11-29T04:18:20.194Z,3.81
2022-11-29T04:21:30.552Z,3.95
2022-11-29T04:24:27.425Z,3.94
2022-11-29T04:27:10.985Z,3.92
2022-11-29T04:29:49.287Z,3.84
2022-11-29T04:33:04.716Z,3.75
2022-11-29T04:35:40.482Z,3.77
2022-11-29T04:38:15.658Z,3.84
2022-11-29T04:41:13.763Z,3.81
2022-11-29T04:43:53.044Z,3.71
2022-11-29T04:46:32.544Z,3.61
2022-11-29T04:49:15.314Z,3.55
2022-11-29T04:52:02.506Z,3.49
2022-11-29T04:54:37.165Z,3.49
2022-11-29T04:57:10.241Z,3.49
2022-11-29T04:59:44.939Z,3.44
2022-11-29T05:02:26.395Z,3.41
2022-11-29T05:04:59.575Z,3.34
2022-11-29T05:07:33.262Z,3.35
2022-11-29T05:10:07.290Z,3.34
2022-11-29T05:12:42.949Z,3.30
2022-11-29T05:15:43.297Z,3.29
2022-11-29T05:18:20.246Z,3.17
2022-11-29T05:20:53.025Z,3.09
2022-11-29T05:23:38.997Z,3.04
2022-11-29T05:26:10.549Z,3.02
2022-11-29T05:28:47.163Z,3.01
2022-11-29T05:31:27.040Z,2.98
2022-11-29T05:34:21.744Z,2.94
2022-11-29T05:37:01.977Z,2.95
2022-11-29T05:39:41.871Z,2.90
2022-11-29T05:42:37.094Z,2.83
2022-11-29T05:45:14.686Z,2.80
2022-11-29T05:47:50.041Z,2.69
2022-11-29T05:50:26.473Z,2.56
2022-11-29T05:52:59.484Z,2.55
2022-11-29T05:55:39.932Z,2.55
2022-11-29T05:58:19.939Z,2.57
2022-11-29T06:00:54.082Z,2.61
2022-11-29T06:03:26.498Z,2.64
2022-11-29T06:05:57.093Z,2.74
2022-11-29T06:08:35.039Z,2.79
2022-11-29T06:11:06.524Z,2.76
2022-11-29T06:13:55.468Z,2.76
2022-11-29T06:16:56.896Z,2.73
2022-11-29T06:19:43.395Z,2.87
2022-11-29T06:22:25.231Z,3.05
2022-11-29T06:25:03.627Z,3.15
2022-11-29T06:27:45.887Z,3.26
2022-11-29T06:30:15.128Z,3.30
2022-11-29T06:32:50.629Z,3.44
2022-11-29T06:35:34.997Z,3.50
2022-11-29T06:38:08.440Z,3.57
2022-11-29T06:40:36.168Z,3.57
2022-11-29T06:43:03.553Z,3.52
2022-11-29T06:45:30.925Z,3.56
2022-11-29T06:48:03.481Z,3.58
2022-11-29T06:50:36.406Z,3.65
2022-11-29T06:53:10.555Z,3.65
2022-11-29T06:55:49.616Z,3.54
2022-11-29T06:58:36.060Z,3.44
2022-11-29T07:01:15.100Z,3.33
2022-11-29T07:03:54.759Z,3.26
2022-11-29T07:06:24.518Z,3.23
2022-11-29T07:08:52.594Z,3.21
2022-11-29T07:11:19.915Z,3.22
2022-11-29T07:13:47.241Z,3.29
2022-11-29T07:16:20.517Z,3.30
2022-11-29T07:18:58.626Z,3.29
2022-11-29T07:21:39.133Z,3.29
2022-11-29T07:24:16.060Z,3.26
2022-11-29T07:26:55.128Z,3.26
2022-11-29T07:29:34.461Z,3.20
2022-11-29T07:32:12.106Z,3.23
2022-11-29T07:34:50.188Z,3.27
2022-11-29T07:37:24.153Z,3.31
2022-11-29T07:39:57.991Z,3.34
2022-11-29T07:42:29.654Z,3.34
2022-11-29T07:45:05.516Z,3.33
2022-11-29T07:47:35.743Z,3.39
2022-11-29T07:50:05.180Z,3.40
2022-11-29T07:52:32.214Z,3.41
2022-11-29T07:54:59.076Z,3.43
2022-11-29T07:57:25.792Z,3.37
2022-11-29T07:59:52.472Z,3.42
2022-11-29T08:02:26.640Z,3.39
2022-11-29T08:04:53.372Z,3.48
2022-11-29T08:07:21.567Z,3.48
2022-11-29T08:09:48.492Z,3.56
2022-11-29T08:12:15.496Z,3.63
2022-11-29T08:14:42.302Z,3.75
2022-11-29T08:17:09.253Z,3.93
2022-11-29T08:19:36.004Z,4.08
2022-11-29T08:22:02.791Z,4.25
2022-11-29T08:24:31.147Z,4.38
2022-11-29T08:26:57.809Z,4.46
2022-11-29T08:29:25.271Z,4.49
2022-11-29T08:31:53.636Z,4.56
2022-11-29T08:34:21.423Z,4.61
2022-11-29T08:36:48.656Z,4.68
2022-11-29T08:39:15.386Z,4.74
2022-11-29T08:41:43.702Z,4.79
2022-11-29T08:44:10.405Z,4.85
2022-11-29T08:46:55.632Z,4.91
2022-11-29T08:49:22.355Z,5.04
2022-11-29T08:51:51.424Z,5.07
2022-11-29T08:54:18.131Z,5.14
2022-11-29T08:59:32.987Z,5.26
2022-11-29T09:01:59.909Z,5.28
2022-11-29T09:04:26.669Z,5.38
2022-11-29T09:06:53.304Z,5.46
2022-11-29T09:09:20.041Z,5.55
2022-11-29T09:11:49.538Z,5.62
2022-11-29T09:14:16.653Z,5.67
2022-11-29T09:16:43.547Z,5.78
2022-11-29T09:19:10.750Z,5.87
2022-11-29T09:21:37.440Z,5.94
2022-11-29T09:24:06.576Z,6.09
2022-11-29T09:26:34.973Z,6.34
2022-11-29T09:29:05.403Z,6.45
2022-11-29T09:31:32.900Z,6.45
2022-11-29T09:33:59.721Z,6.73
2022-11-29T09:36:29.241Z,7.49
2022-11-29T09:38:56.441Z,8.09
2022-11-29T09:41:39.711Z,8.33
2022-11-29T09:44:17.828Z,8.72
2022-11-29T09:46:57.320Z,8.93
2022-11-29T09:49:43.360Z,8.35
2022-11-29T09:52:18.851Z,8.17
2022-11-29T09:54:49.513Z,8.04
2022-11-29T09:57:17.638Z,8.00
2022-11-29T09:59:49.778Z,8.51
2022-11-29T10:02:21.885Z,9.02
2022-11-29T10:04:53.630Z,8.66
2022-11-29T10:07:27.383Z,8.63
2022-11-29T10:09:59.487Z,8.39
2022-11-29T10:12:35.076Z,9.29
2022-11-29T10:15:10.894Z,9.28
2022-11-29T10:17:42.710Z,8.61
2022-11-29T10:20:15.513Z,8.41
2022-11-29T10:22:49.478Z,8.47
2022-11-29T10:25:23.734Z,8.65
2022-11-29T10:27:50.908Z,8.92
2022-11-29T10:30:19.698Z,9.59
2022-11-29T10:32:50.810Z,9.54
2022-11-29T10:35:19.795Z,9.81
2022-11-29T10:38:07.674Z,9.82
2022-11-29T10:40:38.032Z,9.97
2022-11-29T10:43:05.122Z,10.15
2022-11-29T10:45:39.033Z,10.22
2022-11-29T10:48:11.416Z,10.27
2022-11-29T10:50:42.936Z,10.53
2022-11-29T10:53:12.477Z,9.58
2022-11-29T10:55:40.833Z,9.85
2022-11-29T10:58:12.036Z,9.88
2022-11-29T11:01:02.340Z,9.99
2022-11-29T11:03:36.290Z,9.75
2022-11-29T11:06:08.688Z,9.77
2022-11-29T11:08:37.544Z,9.87
2022-11-29T11:11:08.922Z,9.70
2022-11-29T11:13:37.961Z,9.40
2022-11-29T11:16:16.867Z,9.22
2022-11-29T11:18:45.063Z,9.09
2022-11-29T11:21:14.072Z,9.11
2022-11-29T11:23:46.239Z,9.01
2022-11-29T11:26:14.873Z,9.00
2022-11-29T11:28:44.514Z,8.83
2022-11-29T11:31:13.294Z,8.86
2022-11-29T11:33:41.507Z,8.86
2022-11-29T11:36:12.608Z,8.88
2022-11-29T11:38:41.332Z,8.89
2022-11-29T11:41:19.179Z,8.92
2022-11-29T11:43:56.324Z,8.93
2022-11-29T11:46:47.374Z,8.97
2022-11-29T11:49:14.535Z,9.09
2022-11-29T11:51:44.068Z,9.23
2022-11-29T11:54:14.792Z,9.23
2022-11-29T11:56:41.828Z,9.47
2022-11-29T11:59:18.819Z,9.65
2022-11-29T12:01:47.367Z,9.79
2022-11-29T12:04:17.888Z,10.01
2022-11-29T12:06:50.595Z,10.03
2022-11-29T12:09:30.530Z,10.04
2022-11-29T12:12:07.319Z,10.15
2022-11-29T12:14:42.577Z,10.17
2022-11-29T12:17:20.406Z,10.19
2022-11-29T12:20:00.075Z,10.23
2022-11-29T12:22:33.910Z,10.38
2022-11-29T12:25:06.447Z,10.33
2022-11-29T12:27:33.243Z,10.23
2022-11-29T12:30:00.274Z,10.23
2022-11-29T12:33:02.527Z,10.22
2022-11-29T12:35:44.759Z,10.39
2022-11-29T12:38:25.496Z,10.39
2022-11-29T12:41:02.916Z,10.23
2022-11-29T12:43:40.279Z,10.16
2022-11-29T12:46:11.848Z,10.09
2022-11-29T12:48:49.746Z,10.03
2022-11-29T12:51:27.782Z,10.02
2022-11-29T12:54:15.037Z,10.00
2022-11-29T12:56:46.167Z,10.01
2022-11-29T12:59:23.218Z,10.04
2022-11-29T13:02:02.760Z,10.06
2022-11-29T13:04:38.873Z,10.00
2022-11-29T13:07:18.563Z,9.98
2022-11-29T13:10:16.348Z,9.91
2022-11-29T13:12:50.417Z,9.97
2022-11-29T13:15:19.867Z,9.87
2022-11-29T13:17:53.675Z,9.97
2022-11-29T13:20:31.292Z,9.95
2022-11-29T13:23:08.658Z,9.94
2022-11-29T13:25:40.197Z,9.86
2022-11-29T13:28:15.852Z,9.80
2022-11-29T13:30:42.714Z,9.60
2022-11-29T13:33:17.907Z,9.51
2022-11-29T13:35:51.545Z,9.47
2022-11-29T13:38:26.858Z,9.44
2022-11-29T13:41:00.145Z,9.38
2022-11-29T13:43:34.914Z,9.38
2022-11-29T13:46:09.722Z,9.36
2022-11-29T13:48:48.292Z,9.29
2022-11-29T13:51:27.678Z,9.31
2022-11-29T13:53:57.541Z,9.32
2022-11-29T13:56:36.631Z,9.39
2022-11-29T13:59:08.515Z,9.38
2022-11-29T14:01:47.251Z,9.34
2022-11-29T14:04:26.378Z,9.37
2022-11-29T14:07:04.481Z,9.34
2022-11-29T14:09:48.885Z,9.36
2022-11-29T14:12:40.270Z,9.29
2022-11-29T14:15:21.421Z,9.22
2022-11-29T14:17:54.354Z,9.16
2022-11-29T14:20:58.649Z,9.15
2022-11-29T14:28:02.409Z,9.07
2022-11-29T14:31:02.205Z,9.01
2022-11-29T14:34:23.199Z,9.02
2022-11-29T14:36:53.556Z,9.04
2022-11-29T14:39:30.445Z,9.03
2022-11-29T14:42:06.525Z,9.05
2022-11-29T14:44:34.642Z,9.01
2022-11-29T14:47:04.111Z,8.98
2022-11-29T14:49:40.006Z,8.94
2022-11-29T14:52:09.990Z,8.96
2022-11-29T14:54:54.904Z,8.98
2022-11-29T14:58:06.129Z,8.91
2022-11-29T15:00:38.090Z,8.90
2022-11-29T15:03:12.864Z,8.94
2022-11-29T15:05:44.362Z,8.95
2022-11-29T15:08:17.337Z,8.91
2022-11-29T15:10:49.896Z,8.92
2022-11-29T15:13:23.245Z,8.94
2022-11-29T15:16:16.445Z,8.92
2022-11-29T15:19:04.872Z,8.93
2022-11-29T15:21:39.980Z,8.92
2022-11-29T15:24:12.331Z,8.92
2022-11-29T15:26:39.534Z,8.87
2022-11-29T15:29:13.987Z,8.86
2022-11-29T15:31:42.837Z,8.85
2022-11-29T15:34:20.365Z,8.82
2022-11-29T15:36:48.537Z,8.77
2022-11-29T15:39:34.713Z,8.76
2022-11-29T15:42:04.387Z,8.77
2022-11-29T15:44:32.933Z,8.78
2022-11-29T15:47:16.933Z,8.82
2022-11-29T15:49:43.883Z,8.79
2022-11-29T15:52:20.515Z,8.80
2022-11-29T15:54:51.327Z,8.81
2022-11-29T15:57:23.393Z,8.81
2022-11-29T15:59:52.665Z,8.85
2022-11-29T16:02:23.289Z,8.90
2022-11-29T16:04:53.464Z,8.92
2022-11-29T16:07:24.100Z,8.86
2022-11-29T16:09:58.018Z,8.78
2022-11-29T16:12:25.191Z,8.71
2022-11-29T16:14:53.815Z,8.66
2022-11-29T16:17:21.138Z,8.63
2022-11-29T16:19:48.285Z,8.66
2022-11-29T16:22:21.378Z,8.67
2022-11-29T16:25:01.071Z,8.69
2022-11-29T16:27:32.648Z,8.69
2022-11-29T16:30:00.399Z,8.67
2022-11-29T16:32:30.220Z,8.64
2022-11-29T16:34:57.650Z,8.62
2022-11-29T16:37:29.489Z,8.58
2022-11-29T16:40:01.903Z,8.52
2022-11-29T16:42:32.657Z,8.50
2022-11-29T16:45:25.799Z,8.47
2022-11-29T16:47:58.196Z,8.47
2022-11-29T16:50:26.240Z,8.45
2022-11-29T16:52:56.605Z,8.39
2022-11-29T16:55:25.234Z,8.33
2022-11-29T16:57:52.454Z,8.31
2022-11-29T17:00:29.055Z,8.31
2022-11-29T17:02:55.842Z,8.23
2022-11-29T17:05:22.998Z,8.22
2022-11-29T17:10:54.112Z,8.09
2022-11-29T17:13:20.814Z,8.08
2022-11-29T17:15:47.497Z,8.01
2022-11-29T17:18:14.210Z,8.00
2022-11-29T17:20:40.925Z,7.96
2022-11-29T17:23:09.066Z,7.96
2022-11-29T17:25:36.048Z,7.98
2022-11-29T17:28:04.097Z,8.03
2022-11-29T17:30:31.809Z,8.08
2022-11-29T17:32:58.579Z,8.09
2022-11-29T17:35:25.412Z,8.06
2022-11-29T17:37:52.495Z,8.11
2022-11-29T17:40:20.244Z,8.15
2022-11-29T17:42:48.616Z,8.21
2022-11-29T17:45:16.826Z,8.28
2022-11-29T17:47:43.596Z,8.40
2022-11-29T17:50:11.550Z,8.52
2022-11-29T17:52:39.797Z,8.64
2022-11-29T17:55:07.729Z,8.63
2022-11-29T17:57:34.816Z,8.68
2022-11-29T18:00:06.316Z,8.72
2022-11-29T18:02:35.010Z,8.68
2022-11-29T18:05:01.844Z,8.72
2022-11-29T18:07:28.661Z,8.67
2022-11-29T18:09:55.516Z,8.68
2022-11-29T18:12:22.517Z,8.65
2022-11-29T18:14:50.847Z,8.62
2022-11-29T18:17:17.566Z,8.51
2022-11-29T18:19:46.008Z,8.50
2022-11-29T18:22:13.134Z,8.48
2022-11-29T18:24:43.657Z,8.45
2022-11-29T18:27:10.337Z,8.42
2022-11-29T18:29:39.251Z,8.41
2022-11-29T18:32:06.159Z,8.36
2022-11-29T18:34:32.956Z,8.35
2022-11-29T18:37:01.296Z,8.33
2022-11-29T18:39:29.647Z,8.33
2022-11-29T18:41:56.511Z,8.28
2022-11-29T18:44:29.224Z,8.31
2022-11-29T18:46:56.881Z,8.34
2022-11-29T18:49:23.800Z,8.34
2022-11-29T18:51:50.718Z,8.35
2022-11-29T18:54:19.661Z,8.34
2022-11-29T18:56:46.827Z,8.32
2022-11-29T18:59:19.778Z,8.28
2022-11-29T19:01:48.425Z,8.21
2022-11-29T19:04:17.510Z,8.15
2022-11-29T19:06:45.118Z,8.08
2022-11-29T19:09:14.513Z,7.98
2022-11-29T19:11:42.842Z,7.99
2022-11-29T19:14:13.847Z,8.02
2022-11-29T19:16:43.152Z,8.07
2022-11-29T19:19:10.507Z,8.05
2022-11-29T19:21:39.783Z,8.03
2022-11-29T19:24:13.937Z,7.97
2022-11-29T19:26:46.459Z,8.01
2022-11-29T19:29:14.088Z,8.04
2022-11-29T19:31:40.917Z,8.03
2022-11-29T19:34:07.996Z,8.05
2022-11-29T19:36:37.039Z,8.05
2022-11-29T19:39:03.948Z,7.96
2022-11-29T19:41:32.702Z,7.85
2022-11-29T19:44:03.610Z,7.82
2022-11-29T19:46:32.775Z,7.84
2022-11-29T19:49:00.423Z,7.85
2022-11-29T19:51:28.885Z,7.80
2022-11-29T19:53:57.713Z,7.89
2022-11-29T19:56:24.901Z,7.86
2022-11-29T19:58:52.006Z,7.83
2022-11-29T20:01:25.407Z,7.81
2022-11-29T20:03:52.675Z,7.79
2022-11-29T20:06:20.063Z,7.83
2022-11-29T20:08:47.767Z,7.82
2022-11-29T20:11:16.337Z,7.81
2022-11-29T20:13:44.561Z,7.84
2022-11-29T20:16:12.856Z,7.86
2022-11-29T20:18:48.807Z,7.86
2022-11-29T20:21:20.220Z,7.89
2022-11-29T20:23:47.330Z,7.87
2022-11-29T20:26:17.120Z,7.86
2022-11-29T20:28:44.607Z,7.87
2022-11-29T20:31:15.149Z,7.86
2022-11-29T20:33:45.425Z,7.87
2022-11-29T20:36:24.771Z,7.90
2022-11-29T20:38:58.015Z,7.93
2022-11-29T20:41:33.035Z,7.97
2022-11-29T20:44:02.993Z,8.00
2022-11-29T20:46:30.313Z,7.98
2022-11-29T20:49:04.747Z,7.99
2022-11-29T20:51:39.674Z,7.93
2022-11-29T20:54:06.438Z,7.92
2022-11-29T20:56:33.195Z,7.99
2022-11-29T20:59:00.171Z,7.96
2022-11-29T21:01:26.981Z,7.95
2022-11-29T21:03:53.895Z,7.93
2022-11-29T21:06:22.130Z,7.89
2022-11-29T21:08:49.758Z,7.92
2022-11-29T21:11:18.149Z,7.89
2022-11-29T21:13:45.560Z,7.86
2022-11-29T21:16:14.247Z,7.79
2022-11-29T21:18:41.742Z,7.75
2022-11-29T21:21:20.587Z,7.76
2022-11-29T21:24:00.953Z,7.73
2022-11-29T21:26:31.755Z,7.69
2022-11-29T21:29:12.086Z,7.67
2022-11-29T21:31:39.774Z,7.66
2022-11-29T21:34:06.572Z,7.60
2022-11-29T21:36:33.387Z,7.66
2022-11-29T21:39:05.178Z,7.66
2022-11-29T21:41:32.479Z,7.64
2022-11-29T21:44:08.207Z,7.63
2022-11-29T21:46:35.514Z,7.62
2022-11-29T21:49:02.425Z,7.54
2022-11-29T21:51:29.216Z,7.53
2022-11-29T21:53:55.898Z,7.52
2022-11-29T21:56:24.004Z,7.51
2022-11-29T21:58:50.735Z,7.47
2022-11-29T22:01:20.039Z,7.42
2022-11-29T22:03:47.029Z,7.37
2022-11-29T22:06:18.618Z,7.35
2022-11-29T22:08:45.352Z,7.31
2022-11-29T22:11:14.415Z,7.32
2022-11-29T22:14:02.999Z,7.32
2022-11-29T22:16:30.518Z,7.33
2022-11-29T22:18:57.356Z,7.29
2022-11-29T22:21:24.150Z,7.24
2022-11-29T22:23:52.249Z,7.15
2022-11-29T22:26:19.002Z,7.03
2022-11-29T22:28:47.089Z,6.87
2022-11-29T22:31:13.997Z,6.70
2022-11-29T22:33:40.922Z,6.58
2022-11-29T22:36:09.970Z,6.64
2022-11-29T22:38:37.333Z,6.59
2022-11-29T22:41:05.934Z,6.58
2022-11-29T22:43:33.389Z,6.62
2022-11-29T22:46:06.744Z,6.68
2022-11-29T22:48:38.714Z,6.63
2022-11-29T22:51:08.127Z,6.63
2022-11-29T22:53:36.008Z,6.64
2022-11-29T22:56:05.295Z,6.68
2022-11-29T22:58:32.247Z,6.67
2022-11-29T23:01:03.668Z,6.63
2022-11-29T23:03:35.454Z,6.62
2022-11-29T23:06:04.798Z,6.68
2022-11-29T23:08:31.646Z,6.74
2022-11-29T23:10:58.991Z,6.75
2022-11-29T23:13:25.982Z,6.79
2022-11-29T23:15:52.891Z,6.81
2022-11-29T23:18:20.046Z,6.83
2022-11-29T23:20:48.176Z,6.84
2022-11-29T23:23:14.893Z,6.81
2022-11-29T23:25:49.552Z,6.81
2022-11-29T23:28:16.725Z,6.83
2022-11-29T23:30:43.527Z,6.80
2022-11-29T23:33:10.519Z,6.81
2022-11-29T23:35:37.304Z,6.79
2022-11-29T23:38:06.105Z,6.77
2022-11-29T23:40:33.278Z,6.72
2022-11-29T23:43:00.132Z,6.72
2022-11-29T23:45:26.962Z,6.68
2022-11-29T23:47:53.827Z,6.65
2022-11-29T23:50:20.600Z,6.62
2022-11-29T23:52:52.501Z,6.61
2022-11-29T23:55:21.257Z,6.62
2022-11-29T23:57:48.189Z,6.59
